Time;durP1;ratioP1;P1;durP2;ratioP2;P2;SDS_P1;SDS_P2;PMS_P1;PMS_P2;Temp;Humidity;BMP_temperature;BMP_pressure;BME280_temperature;BME280_humidity;BME280_pressure;Samples;Min_cycle;Max_cycle;Signal;HPM_P1;HPM_P2
2021/03/29 00:00:48;;;;;;;0.10;0.10;;;;;;;;;;5082673;28;20239;-67
2021/03/29 00:03:14;;;;;;;0.10;0.10;;;;;;;;;;5082563;28;20205;-66
2021/03/29 00:05:40;;;;;;;0.10;0.10;;;;;;;;;;5081909;28;20247;-67
2021/03/29 00:08:07;;;;;;;0.10;0.10;;;;;;;;;;5081064;28;20205;-67
2021/03/29 00:10:36;;;;;;;0.10;0.10;;;;;;;;;;5080124;28;20200;-68
2021/03/29 00:13:02;;;;;;;0.10;0.10;;;;;;;;;;5081016;28;20548;-66
2021/03/29 00:15:30;;;;;;;0.10;0.10;;;;;;;;;;5082743;28;20273;-66
2021/03/29 00:17:56;;;;;;;0.10;0.10;;;;;;;;;;5079476;28;20275;-68
2021/03/29 00:20:23;;;;;;;0.17;0.17;;;;;;;;;;5076691;28;20487;-68
2021/03/29 00:22:50;;;;;;;0.10;0.10;;;;;;;;;;5076239;28;20215;-66
2021/03/29 00:25:16;;;;;;;0.10;0.10;;;;;;;;;;5069261;28;20234;-66
2021/03/29 00:27:42;;;;;;;0.10;0.10;;;;;;;;;;5086937;28;20302;-67
2021/03/29 00:30:10;;;;;;;0.10;0.10;;;;;;;;;;5077075;28;20209;-68
2021/03/29 00:32:36;;;;;;;0.10;0.10;;;;;;;;;;5079776;28;20386;-67
2021/03/29 00:35:02;;;;;;;0.10;0.10;;;;;;;;;;5071425;28;20214;-69
2021/03/29 00:37:28;;;;;;;0.10;0.10;;;;;;;;;;5079542;28;20214;-67
2021/03/29 00:39:54;;;;;;;0.10;0.10;;;;;;;;;;5067968;28;20229;-66
2021/03/29 00:42:20;;;;;;;0.10;0.10;;;;;;;;;;5072579;28;20253;-67
2021/03/29 00:44:46;;;;;;;0.10;0.10;;;;;;;;;;5087077;28;20401;-67
2021/03/29 00:47:13;;;;;;;0.10;0.10;;;;;;;;;;5073251;28;20215;-66
2021/03/29 00:49:39;;;;;;;0.10;0.10;;;;;;;;;;5086689;28;20211;-67
2021/03/29 00:52:06;;;;;;;0.10;0.10;;;;;;;;;;5077794;28;20202;-67
2021/03/29 00:54:32;;;;;;;0.10;0.10;;;;;;;;;;5082944;28;20216;-67
2021/03/29 00:56:58;;;;;;;0.10;0.10;;;;;;;;;;5068647;28;20211;-67
2021/03/29 00:59:23;;;;;;;0.10;0.10;;;;;;;;;;5081302;28;20371;-67
2021/03/29 01:01:50;;;;;;;0.10;0.10;;;;;;;;;;5075735;28;20400;-68
2021/03/29 01:04:16;;;;;;;0.10;0.10;;;;;;;;;;5080261;28;20439;-67
2021/03/29 01:06:43;;;;;;;0.10;0.10;;;;;;;;;;5075631;28;20252;-67
2021/03/29 01:09:10;;;;;;;0.10;0.10;;;;;;;;;;5075523;28;20209;-67
2021/03/29 01:11:39;;;;;;;0.10;0.10;;;;;;;;;;5071202;28;20221;-66
2021/03/29 01:14:06;;;;;;;0.10;0.10;;;;;;;;;;5072269;28;20254;-66
2021/03/29 01:16:33;;;;;;;0.10;0.10;;;;;;;;;;5082193;28;20205;-66
2021/03/29 01:19:01;;;;;;;0.10;0.10;;;;;;;;;;5079073;28;20266;-66
2021/03/29 01:21:47;;;;;;;0.10;0.10;;;;;;;;;;5080432;28;20233;-66
2021/03/29 01:24:15;;;;;;;0.10;0.10;;;;;;;;;;5054121;28;20258;-66
2021/03/29 01:26:43;;;;;;;0.10;0.10;;;;;;;;;;5085326;28;20313;-67
2021/03/29 01:29:09;;;;;;;0.10;0.10;;;;;;;;;;5082645;28;20211;-67
2021/03/29 01:31:36;;;;;;;0.10;0.10;;;;;;;;;;5078480;28;20394;-67
2021/03/29 01:34:02;;;;;;;0.10;0.10;;;;;;;;;;5078004;28;20248;-68
2021/03/29 01:36:29;;;;;;;0.10;0.10;;;;;;;;;;5084885;28;20213;-68
2021/03/29 01:38:55;;;;;;;0.10;0.10;;;;;;;;;;5076226;28;20208;-67
2021/03/29 01:41:21;;;;;;;0.10;0.10;;;;;;;;;;5085625;28;20226;-67
2021/03/29 01:43:48;;;;;;;0.10;0.10;;;;;;;;;;5085923;28;20216;-67
2021/03/29 01:46:15;;;;;;;0.10;0.10;;;;;;;;;;5079346;28;20210;-67
2021/03/29 01:48:41;;;;;;;0.10;0.10;;;;;;;;;;5078622;28;20222;-67
2021/03/29 01:51:07;;;;;;;0.10;0.10;;;;;;;;;;5085624;28;20460;-67
2021/03/29 01:53:33;;;;;;;0.10;0.10;;;;;;;;;;5085902;28;20252;-67
2021/03/29 01:55:58;;;;;;;0.10;0.10;;;;;;;;;;5071502;28;21114;-68
2021/03/29 01:58:24;;;;;;;0.10;0.10;;;;;;;;;;5086174;28;20206;-67
2021/03/29 02:00:52;;;;;;;0.10;0.10;;;;;;;;;;5084935;28;20236;-68
2021/03/29 02:03:19;;;;;;;0.10;0.10;;;;;;;;;;5084057;28;20213;-67
2021/03/29 02:05:44;;;;;;;0.10;0.10;;;;;;;;;;5071903;28;20230;-67
2021/03/29 02:08:10;;;;;;;0.10;0.10;;;;;;;;;;5081701;28;20209;-68
2021/03/29 02:10:38;;;;;;;0.10;0.10;;;;;;;;;;5078420;28;20216;-67
2021/03/29 02:13:06;;;;;;;0.10;0.10;;;;;;;;;;5076927;28;20435;-68
2021/03/29 02:15:32;;;;;;;0.10;0.10;;;;;;;;;;5078887;28;20488;-67
2021/03/29 02:17:59;;;;;;;0.10;0.10;;;;;;;;;;5085502;28;20213;-67
2021/03/29 02:20:26;;;;;;;0.10;0.10;;;;;;;;;;5085523;28;20211;-67
2021/03/29 02:22:53;;;;;;;0.10;0.10;;;;;;;;;;5083940;28;20220;-68
2021/03/29 02:25:19;;;;;;;0.10;0.10;;;;;;;;;;5076104;28;20211;-68
2021/03/29 02:27:47;;;;;;;0.10;0.10;;;;;;;;;;5069289;28;20212;-65
2021/03/29 02:30:14;;;;;;;0.10;0.10;;;;;;;;;;5082727;28;20443;-67
2021/03/29 02:32:42;;;;;;;0.10;0.10;;;;;;;;;;5085009;28;20211;-67
2021/03/29 02:35:09;;;;;;;0.10;0.10;;;;;;;;;;5071261;28;20204;-68
2021/03/29 02:37:35;;;;;;;0.10;0.10;;;;;;;;;;5084843;28;20213;-67
2021/03/29 02:40:01;;;;;;;0.10;0.10;;;;;;;;;;5070983;28;20203;-67
2021/03/29 02:42:26;;;;;;;0.10;0.10;;;;;;;;;;5074245;28;20296;-68
2021/03/29 02:44:52;;;;;;;0.10;0.10;;;;;;;;;;5069628;28;20494;-67
2021/03/29 02:47:18;;;;;;;0.10;0.10;;;;;;;;;;5070421;28;20247;-67
2021/03/29 02:49:44;;;;;;;0.10;0.10;;;;;;;;;;5081732;28;20641;-69
2021/03/29 02:52:11;;;;;;;0.10;0.10;;;;;;;;;;5069815;28;20218;-67
2021/03/29 02:54:37;;;;;;;0.10;0.10;;;;;;;;;;5077787;28;20431;-67
2021/03/29 02:57:04;;;;;;;0.10;0.10;;;;;;;;;;5079069;28;20210;-68
2021/03/29 02:59:30;;;;;;;0.10;0.10;;;;;;;;;;5084316;28;20250;-67
2021/03/29 03:01:57;;;;;;;0.10;0.10;;;;;;;;;;5084321;28;20448;-67
2021/03/29 03:04:23;;;;;;;0.10;0.10;;;;;;;;;;5084004;28;20229;-67
2021/03/29 03:06:49;;;;;;;0.10;0.10;;;;;;;;;;5084073;28;20243;-67
2021/03/29 03:09:15;;;;;;;0.10;0.10;;;;;;;;;;5077937;28;20203;-67
2021/03/29 03:11:44;;;;;;;0.10;0.10;;;;;;;;;;5075351;28;20217;-67
2021/03/29 03:14:09;;;;;;;0.10;0.10;;;;;;;;;;5083929;28;20205;-67
2021/03/29 03:16:36;;;;;;;0.10;0.10;;;;;;;;;;5084260;28;20212;-67
2021/03/29 03:19:01;;;;;;;0.10;0.10;;;;;;;;;;5081382;28;20371;-67
2021/03/29 03:21:27;;;;;;;0.10;0.10;;;;;;;;;;5073520;28;20232;-67
2021/03/29 03:23:54;;;;;;;0.10;0.10;;;;;;;;;;5081491;28;20206;-67
2021/03/29 03:26:21;;;;;;;0.10;0.10;;;;;;;;;;5073178;28;20210;-68
2021/03/29 03:28:46;;;;;;;0.10;0.10;;;;;;;;;;5067541;28;20226;-67
2021/03/29 03:31:12;;;;;;;0.10;0.10;;;;;;;;;;5083702;28;20198;-67
2021/03/29 03:33:38;;;;;;;0.10;0.10;;;;;;;;;;5071200;28;20204;-67
2021/03/29 03:36:05;;;;;;;0.10;0.10;;;;;;;;;;5083751;28;20217;-67
2021/03/29 03:38:32;;;;;;;0.10;0.10;;;;;;;;;;5083729;28;20543;-68
2021/03/29 03:40:59;;;;;;;0.10;0.10;;;;;;;;;;5077247;28;20516;-67
2021/03/29 03:43:27;;;;;;;0.10;0.10;;;;;;;;;;5072420;28;20206;-67
2021/03/29 03:45:57;;;;;;;0.17;0.17;;;;;;;;;;5071628;28;20215;-67
2021/03/29 03:48:23;;;;;;;0.10;0.10;;;;;;;;;;5078544;28;20218;-67
2021/03/29 03:50:49;;;;;;;0.10;0.10;;;;;;;;;;5083152;28;20246;-67
2021/03/29 03:53:15;;;;;;;0.10;0.10;;;;;;;;;;5071638;28;20398;-67
2021/03/29 03:55:41;;;;;;;0.10;0.10;;;;;;;;;;5083752;28;20209;-68
2021/03/29 03:58:08;;;;;;;0.10;0.10;;;;;;;;;;5083304;28;20202;-68
2021/03/29 04:00:35;;;;;;;0.10;0.10;;;;;;;;;;5072399;28;20208;-67
2021/03/29 04:03:01;;;;;;;0.10;0.10;;;;;;;;;;5076001;28;20232;-67
2021/03/29 04:05:26;;;;;;;0.10;0.10;;;;;;;;;;5070222;28;20224;-67
2021/03/29 04:07:54;;;;;;;0.23;0.23;;;;;;;;;;5077569;28;20209;-67
2021/03/29 04:10:21;;;;;;;0.10;0.10;;;;;;;;;;5083543;28;20258;-67
2021/03/29 04:12:53;;;;;;;0.10;0.10;;;;;;;;;;5077019;28;20213;-67
2021/03/29 04:15:18;;;;;;;0.10;0.10;;;;;;;;;;5074598;28;20205;-67
2021/03/29 04:17:45;;;;;;;0.10;0.10;;;;;;;;;;5068153;28;20519;-67
2021/03/29 04:20:11;;;;;;;0.10;0.10;;;;;;;;;;5080955;28;20246;-67
2021/03/29 04:22:37;;;;;;;0.10;0.10;;;;;;;;;;5076441;28;20278;-67
2021/03/29 04:25:04;;;;;;;0.10;0.10;;;;;;;;;;5076062;28;20393;-68
2021/03/29 04:27:29;;;;;;;0.10;0.10;;;;;;;;;;5078803;28;20201;-67
2021/03/29 04:29:55;;;;;;;0.10;0.10;;;;;;;;;;5079040;28;20396;-67
2021/03/29 04:32:21;;;;;;;0.20;0.20;;;;;;;;;;5079633;28;20496;-69
2021/03/29 04:34:47;;;;;;;0.10;0.10;;;;;;;;;;5082573;28;20208;-68
2021/03/29 04:37:13;;;;;;;0.10;0.10;;;;;;;;;;5079344;28;20213;-68
2021/03/29 04:39:39;;;;;;;0.10;0.10;;;;;;;;;;5079196;28;20205;-67
2021/03/29 04:42:05;;;;;;;0.10;0.10;;;;;;;;;;5079000;28;20345;-67
2021/03/29 04:44:31;;;;;;;0.10;0.10;;;;;;;;;;5078674;28;20499;-68
2021/03/29 04:46:57;;;;;;;0.10;0.10;;;;;;;;;;5072624;28;20265;-67
2021/03/29 04:49:22;;;;;;;0.10;0.10;;;;;;;;;;5082797;28;20210;-68
2021/03/29 04:51:49;;;;;;;0.10;0.10;;;;;;;;;;5079098;28;20195;-67
2021/03/29 04:54:15;;;;;;;0.10;0.10;;;;;;;;;;5064805;28;20232;-66
2021/03/29 04:56:40;;;;;;;0.10;0.10;;;;;;;;;;5081941;28;20458;-66
2021/03/29 04:59:06;;;;;;;0.10;0.10;;;;;;;;;;5081769;28;20207;-67
2021/03/29 05:01:32;;;;;;;0.10;0.10;;;;;;;;;;5083086;28;20535;-69
2021/03/29 05:03:57;;;;;;;0.10;0.10;;;;;;;;;;5079399;28;20260;-67
2021/03/29 05:06:23;;;;;;;0.10;0.10;;;;;;;;;;5076511;28;20272;-66
2021/03/29 05:08:50;;;;;;;0.10;0.10;;;;;;;;;;5071175;28;20501;-68
2021/03/29 05:11:15;;;;;;;0.10;0.10;;;;;;;;;;5068903;28;20211;-67
2021/03/29 05:13:41;;;;;;;0.10;0.10;;;;;;;;;;5083908;28;20207;-67
2021/03/29 05:16:07;;;;;;;0.10;0.10;;;;;;;;;;5072063;28;20213;-67
2021/03/29 05:18:32;;;;;;;0.10;0.10;;;;;;;;;;5084987;28;20201;-68
2021/03/29 05:20:58;;;;;;;0.10;0.10;;;;;;;;;;5086121;28;20206;-67
2021/03/29 05:23:24;;;;;;;0.10;0.10;;;;;;;;;;5070098;28;20530;-68
2021/03/29 05:25:50;;;;;;;0.10;0.10;;;;;;;;;;5068215;28;20532;-67
2021/03/29 05:28:18;;;;;;;0.10;0.10;;;;;;;;;;5068055;28;20238;-66
2021/03/29 05:30:44;;;;;;;0.10;0.10;;;;;;;;;;5073433;28;20234;-67
2021/03/29 05:33:10;;;;;;;0.10;0.10;;;;;;;;;;5074432;28;20214;-68
2021/03/29 05:35:35;;;;;;;0.10;0.10;;;;;;;;;;5084206;28;20202;-67
2021/03/29 05:38:01;;;;;;;0.10;0.10;;;;;;;;;;5083709;28;20216;-67
2021/03/29 05:40:27;;;;;;;0.10;0.10;;;;;;;;;;5080344;28;20222;-67
2021/03/29 05:42:54;;;;;;;0.10;0.10;;;;;;;;;;5074857;28;20399;-67
2021/03/29 05:45:20;;;;;;;0.10;0.10;;;;;;;;;;5074806;28;20252;-67
2021/03/29 05:47:45;;;;;;;0.10;0.10;;;;;;;;;;5078993;28;20477;-68
2021/03/29 05:50:13;;;;;;;0.10;0.10;;;;;;;;;;5085853;28;20209;-67
2021/03/29 05:52:40;;;;;;;0.10;0.10;;;;;;;;;;5085327;28;20494;-68
2021/03/29 05:55:08;;;;;;;0.10;0.10;;;;;;;;;;5081354;28;20392;-67
2021/03/29 05:57:40;;;;;;;0.10;0.10;;;;;;;;;;5074837;28;20239;-67
2021/03/29 06:00:25;;;;;;;0.50;0.50;;;;;;;;;;5065498;28;20236;-67
2021/03/29 06:02:51;;;;;;;0.10;0.10;;;;;;;;;;5079105;28;20230;-67
2021/03/29 06:05:31;;;;;;;0.10;0.10;;;;;;;;;;5082133;28;20240;-67
2021/03/29 06:08:01;;;;;;;0.10;0.10;;;;;;;;;;5080074;28;20204;-67
2021/03/29 06:10:34;;;;;;;0.10;0.10;;;;;;;;;;5076535;28;20269;-67
2021/03/29 06:13:13;;;;;;;0.10;0.10;;;;;;;;;;5078577;28;20212;-66
2021/03/29 06:15:39;;;;;;;0.10;0.10;;;;;;;;;;5065278;28;20497;-67
2021/03/29 06:18:12;;;;;;;0.67;0.67;;;;;;;;;;5073890;28;20205;-67
2021/03/29 06:20:52;;;;;;;0.10;0.10;;;;;;;;;;5067557;28;20214;-69
2021/03/29 06:23:18;;;;;;;0.10;0.10;;;;;;;;;;5081806;28;20205;-67
2021/03/29 06:25:44;;;;;;;0.10;0.10;;;;;;;;;;5077061;28;20387;-67
2021/03/29 06:28:22;;;;;;;0.10;0.10;;;;;;;;;;5081724;28;20213;-66
2021/03/29 06:30:48;;;;;;;0.10;0.10;;;;;;;;;;5082333;28;20207;-67
2021/03/29 06:33:15;;;;;;;0.10;0.10;;;;;;;;;;5075256;28;20214;-66
2021/03/29 06:35:42;;;;;;;0.10;0.10;;;;;;;;;;5080278;28;20206;-66
2021/03/29 06:38:12;;;;;;;0.10;0.10;;;;;;;;;;5081048;28;20259;-66
2021/03/29 06:40:39;;;;;;;0.10;0.10;;;;;;;;;;5082044;28;20209;-65
2021/03/29 06:43:19;;;;;;;0.10;0.10;;;;;;;;;;5083368;28;20239;-67
2021/03/29 06:45:44;;;;;;;0.10;0.10;;;;;;;;;;5080212;28;20191;-65
2021/03/29 06:48:18;;;;;;;0.10;0.10;;;;;;;;;;5079653;28;20219;-66
2021/03/29 06:50:44;;;;;;;0.10;0.10;;;;;;;;;;5076282;28;20437;-65
2021/03/29 06:53:10;;;;;;;0.10;0.10;;;;;;;;;;5075207;28;20234;-65
2021/03/29 06:55:36;;;;;;;0.10;0.10;;;;;;;;;;5078554;28;20213;-65
2021/03/29 06:58:03;;;;;;;0.10;0.10;;;;;;;;;;5077910;28;20502;-66
2021/03/29 07:00:30;;;;;;;0.10;0.10;;;;;;;;;;5074852;28;20199;-66
2021/03/29 07:02:58;;;;;;;0.10;0.10;;;;;;;;;;5080889;28;20230;-65
2021/03/29 07:05:25;;;;;;;0.10;0.10;;;;;;;;;;5083316;28;20845;-66
2021/03/29 07:07:52;;;;;;;0.10;0.10;;;;;;;;;;5073424;28;20245;-66
2021/03/29 07:10:18;;;;;;;0.10;0.10;;;;;;;;;;5075012;28;20257;-69
2021/03/29 07:12:45;;;;;;;0.10;0.10;;;;;;;;;;5076011;28;20195;-63
2021/03/29 07:15:12;;;;;;;6.03;5.63;;;;;;;;;;5081541;28;20213;-66
2021/03/29 07:17:38;;;;;;;0.10;0.10;;;;;;;;;;5080934;28;20202;-65
2021/03/29 07:20:05;;;;;;;0.10;0.10;;;;;;;;;;5080261;28;20211;-65
2021/03/29 07:22:31;;;;;;;0.10;0.10;;;;;;;;;;5073741;28;20295;-63
2021/03/29 07:25:01;;;;;;;0.10;0.10;;;;;;;;;;5067142;28;20279;-64
2021/03/29 07:27:28;;;;;;;0.10;0.10;;;;;;;;;;5080093;28;20358;-64
2021/03/29 07:29:54;;;;;;;0.10;0.10;;;;;;;;;;5078715;28;20199;-64
2021/03/29 07:32:27;;;;;;;0.10;0.10;;;;;;;;;;5083190;28;20486;-63
2021/03/29 07:34:52;;;;;;;0.50;0.50;;;;;;;;;;5083081;28;20207;-63
2021/03/29 07:37:36;;;;;;;0.10;0.10;;;;;;;;;;5079528;28;20202;-64
2021/03/29 07:40:03;;;;;;;0.10;0.10;;;;;;;;;;5083919;28;20233;-64
2021/03/29 07:42:32;;;;;;;0.10;0.10;;;;;;;;;;5079748;28;20228;-63
2021/03/29 07:44:59;;;;;;;0.10;0.10;;;;;;;;;;5081177;28;20208;-63
2021/03/29 07:47:38;;;;;;;0.10;0.10;;;;;;;;;;5078470;28;20445;-63
2021/03/29 07:50:04;;;;;;;0.10;0.10;;;;;;;;;;5075915;28;20210;-63
2021/03/29 07:52:31;;;;;;;0.20;0.20;;;;;;;;;;5075259;28;20198;-62
2021/03/29 07:54:59;;;;;;;0.10;0.10;;;;;;;;;;5069159;28;20203;-63
2021/03/29 07:57:43;;;;;;;1.30;1.30;;;;;;;;;;5083583;28;20514;-63
2021/03/29 08:00:10;;;;;;;0.10;0.10;;;;;;;;;;5071662;28;20420;-63
2021/03/29 08:02:36;;;;;;;0.10;0.10;;;;;;;;;;5083514;28;20575;-66
2021/03/29 08:05:03;;;;;;;0.10;0.10;;;;;;;;;;5080105;28;20275;-67
2021/03/29 08:07:35;;;;;;;0.10;0.10;;;;;;;;;;5075323;28;20496;-66
2021/03/29 08:10:01;;;;;;;0.10;0.10;;;;;;;;;;5071359;28;20377;-66
2021/03/29 08:12:27;;;;;;;0.10;0.10;;;;;;;;;;5080234;28;20215;-66
2021/03/29 08:14:53;;;;;;;0.10;0.10;;;;;;;;;;5070116;28;20527;-66
2021/03/29 08:17:41;;;;;;;0.10;0.10;;;;;;;;;;5074808;28;20245;-66
2021/03/29 08:20:12;;;;;;;0.10;0.10;;;;;;;;;;5072121;28;20242;-67
2021/03/29 08:22:38;;;;;;;0.10;0.10;;;;;;;;;;5068683;28;20228;-65
2021/03/29 08:25:05;;;;;;;0.10;0.10;;;;;;;;;;5071814;28;20344;-67
2021/03/29 08:27:32;;;;;;;0.10;0.10;;;;;;;;;;5076614;28;20203;-64
2021/03/29 08:30:09;;;;;;;0.10;0.10;;;;;;;;;;5076962;28;20217;-66
2021/03/29 08:32:36;;;;;;;0.10;0.10;;;;;;;;;;5067860;28;20210;-65
2021/03/29 08:35:04;;;;;;;0.10;0.10;;;;;;;;;;5079286;28;20227;-65
2021/03/29 08:37:31;;;;;;;0.10;0.10;;;;;;;;;;5067339;28;20204;-64
2021/03/29 08:39:58;;;;;;;0.10;0.10;;;;;;;;;;5070608;28;20204;-65
2021/03/29 08:42:27;;;;;;;0.10;0.10;;;;;;;;;;5073815;28;20227;-66
2021/03/29 08:44:53;;;;;;;0.30;0.30;;;;;;;;;;5083413;28;20215;-67
2021/03/29 08:47:20;;;;;;;0.13;0.13;;;;;;;;;;5074024;28;20270;-68
2021/03/29 08:49:46;;;;;;;0.10;0.10;;;;;;;;;;5070556;28;20215;-67
2021/03/29 08:52:12;;;;;;;0.10;0.10;;;;;;;;;;5081254;28;20391;-67
2021/03/29 08:54:46;;;;;;;0.10;0.10;;;;;;;;;;5081071;28;20203;-67
2021/03/29 08:57:12;;;;;;;0.10;0.10;;;;;;;;;;5073629;28;20209;-66
2021/03/29 08:59:38;;;;;;;0.10;0.10;;;;;;;;;;5084883;28;20205;-67
2021/03/29 09:02:12;;;;;;;0.10;0.10;;;;;;;;;;5077759;28;20247;-67
2021/03/29 09:04:47;;;;;;;0.10;0.10;;;;;;;;;;5084131;28;20223;-68
2021/03/29 09:07:12;;;;;;;0.10;0.10;;;;;;;;;;5083671;28;20420;-68
2021/03/29 09:09:38;;;;;;;0.10;0.10;;;;;;;;;;5075584;28;20202;-69
2021/03/29 09:12:04;;;;;;;0.10;0.10;;;;;;;;;;5080043;28;20206;-69
2021/03/29 09:14:30;;;;;;;0.10;0.10;;;;;;;;;;5079579;28;20257;-67
2021/03/29 09:16:57;;;;;;;0.10;0.10;;;;;;;;;;5070635;28;20281;-68
2021/03/29 09:19:23;;;;;;;0.10;0.10;;;;;;;;;;5084612;28;20507;-68
2021/03/29 09:21:52;;;;;;;0.10;0.10;;;;;;;;;;5086042;28;20267;-68
2021/03/29 09:24:19;;;;;;;0.10;0.10;;;;;;;;;;5070866;28;20214;-69
2021/03/29 09:26:54;;;;;;;0.10;0.10;;;;;;;;;;5083793;28;20247;-67
2021/03/29 09:29:31;;;;;;;0.03;0.03;;;;;;;;;;5081171;28;20511;-66
2021/03/29 09:31:58;;;;;;;0.10;0.10;;;;;;;;;;5083286;28;20548;-67
2021/03/29 09:34:24;;;;;;;0.10;0.10;;;;;;;;;;5078775;28;20288;-68
2021/03/29 09:36:50;;;;;;;0.10;0.10;;;;;;;;;;5083076;28;20479;-68
2021/03/29 09:39:16;;;;;;;0.10;0.10;;;;;;;;;;5076821;28;20210;-67
2021/03/29 09:41:49;;;;;;;0.10;0.10;;;;;;;;;;5081507;28;20226;-67
2021/03/29 09:44:15;;;;;;;0.10;0.10;;;;;;;;;;5079350;28;20211;-67
2021/03/29 09:46:41;;;;;;;0.10;0.10;;;;;;;;;;5082548;28;20205;-68
2021/03/29 09:49:09;;;;;;;0.10;0.10;;;;;;;;;;5083276;28;20529;-66
2021/03/29 09:51:35;;;;;;;0.10;0.10;;;;;;;;;;5077148;28;20206;-68
2021/03/29 09:54:18;;;;;;;0.10;0.10;;;;;;;;;;5080468;28;20231;-68
2021/03/29 09:56:44;;;;;;;0.40;0.40;;;;;;;;;;5073754;28;20207;-68
2021/03/29 09:59:10;;;;;;;0.10;0.10;;;;;;;;;;5071510;28;20273;-68
2021/03/29 10:01:43;;;;;;;0.10;0.10;;;;;;;;;;5080391;28;20236;-67
2021/03/29 10:04:13;;;;;;;0.20;0.20;;;;;;;;;;5078030;28;20409;-67
2021/03/29 10:06:49;;;;;;;0.10;0.10;;;;;;;;;;5067106;28;20203;-67
2021/03/29 10:09:15;;;;;;;0.10;0.10;;;;;;;;;;5070309;28;20220;-67
2021/03/29 10:11:44;;;;;;;0.10;0.10;;;;;;;;;;5076172;28;20223;-66
2021/03/29 10:14:10;;;;;;;0.10;0.10;;;;;;;;;;5072076;28;20212;-67
2021/03/29 10:16:43;;;;;;;0.10;0.10;;;;;;;;;;5079967;28;20397;-66
2021/03/29 10:19:11;;;;;;;0.20;0.20;;;;;;;;;;5077499;28;20200;-66
2021/03/29 10:21:52;;;;;;;0.10;0.10;;;;;;;;;;5077194;28;20239;-67
2021/03/29 10:24:19;;;;;;;0.07;0.07;;;;;;;;;;5078937;28;20303;-67
2021/03/29 10:26:54;;;;;;;0.10;0.10;;;;;;;;;;5072953;28;20207;-67
2021/03/29 10:29:28;;;;;;;0.10;0.10;;;;;;;;;;5076603;28;20276;-68
2021/03/29 10:31:54;;;;;;;0.10;0.10;;;;;;;;;;5071458;28;20202;-67
2021/03/29 10:34:20;;;;;;;0.10;0.10;;;;;;;;;;5075309;28;20227;-68
2021/03/29 10:36:46;;;;;;;0.03;0.03;;;;;;;;;;5078466;28;20478;-68
2021/03/29 10:39:12;;;;;;;0.10;0.10;;;;;;;;;;5081748;28;20246;-67
2021/03/29 10:41:38;;;;;;;0.10;0.10;;;;;;;;;;5073973;28;20237;-67
2021/03/29 10:44:04;;;;;;;0.10;0.10;;;;;;;;;;5070918;28;20240;-65
2021/03/29 10:46:31;;;;;;;0.10;0.10;;;;;;;;;;5082436;28;20197;-66
2021/03/29 10:48:57;;;;;;;0.10;0.10;;;;;;;;;;5075375;28;20255;-66
2021/03/29 10:51:24;;;;;;;0.00;0.00;;;;;;;;;;5079582;28;20203;-66
2021/03/29 10:53:50;;;;;;;0.10;0.10;;;;;;;;;;5083674;28;20229;-66
2021/03/29 10:56:15;;;;;;;0.10;0.10;;;;;;;;;;5073272;28;20222;-67
2021/03/29 10:58:42;;;;;;;0.10;0.10;;;;;;;;;;5081787;28;20234;-65
2021/03/29 11:01:07;;;;;;;0.10;0.10;;;;;;;;;;5079510;28;20212;-66
2021/03/29 11:03:33;;;;;;;0.10;0.10;;;;;;;;;;5066133;28;20531;-68
2021/03/29 11:05:59;;;;;;;0.10;0.10;;;;;;;;;;5067806;28;20204;-67
2021/03/29 11:08:26;;;;;;;0.10;0.10;;;;;;;;;;5073961;28;20197;-67
2021/03/29 11:10:51;;;;;;;0.10;0.10;;;;;;;;;;5080341;28;20572;-67
2021/03/29 11:13:17;;;;;;;0.10;0.10;;;;;;;;;;5073316;28;20233;-67
2021/03/29 11:15:43;;;;;;;0.10;0.10;;;;;;;;;;5067764;28;20283;-67
2021/03/29 11:18:10;;;;;;;0.10;0.10;;;;;;;;;;5083624;28;20229;-66
2021/03/29 11:20:36;;;;;;;0.07;0.07;;;;;;;;;;5082058;28;20491;-69
2021/03/29 11:23:02;;;;;;;0.10;0.10;;;;;;;;;;5075797;28;20231;-69
2021/03/29 11:25:29;;;;;;;0.10;0.10;;;;;;;;;;5073065;28;20208;-68
2021/03/29 11:27:55;;;;;;;0.10;0.10;;;;;;;;;;5080154;28;20204;-69
2021/03/29 11:30:21;;;;;;;0.10;0.10;;;;;;;;;;5081381;28;20219;-70
2021/03/29 11:32:47;;;;;;;0.00;0.00;;;;;;;;;;5078795;28;20218;-69
2021/03/29 11:35:13;;;;;;;0.10;0.10;;;;;;;;;;5079770;28;20200;-70
2021/03/29 11:37:39;;;;;;;0.10;0.10;;;;;;;;;;5078375;28;20899;-69
2021/03/29 11:40:05;;;;;;;0.10;0.10;;;;;;;;;;5076985;28;20217;-70
2021/03/29 11:42:32;;;;;;;0.00;0.00;;;;;;;;;;5080692;28;20222;-70
2021/03/29 11:44:57;;;;;;;0.00;0.00;;;;;;;;;;5076773;28;20213;-70
2021/03/29 11:47:23;;;;;;;0.10;0.10;;;;;;;;;;5071717;28;21472;-69
2021/03/29 11:49:49;;;;;;;0.10;0.10;;;;;;;;;;5078723;28;20220;-69
2021/03/29 11:52:15;;;;;;;0.00;0.00;;;;;;;;;;5079560;28;20202;-70
2021/03/29 11:54:41;;;;;;;0.10;0.10;;;;;;;;;;5076683;28;20207;-69
2021/03/29 11:57:07;;;;;;;0.10;0.10;;;;;;;;;;5080323;28;20512;-68
2021/03/29 11:59:35;;;;;;;0.10;0.10;;;;;;;;;;5077132;28;20362;-68
2021/03/29 12:02:08;;;;;;;0.10;0.10;;;;;;;;;;5080171;28;20238;-69
2021/03/29 12:04:40;;;;;;;0.20;0.20;;;;;;;;;;5077299;28;20314;-71
2021/03/29 12:07:13;;;;;;;0.10;0.10;;;;;;;;;;5077274;28;20203;-70
2021/03/29 12:09:45;;;;;;;0.10;0.10;;;;;;;;;;5081202;28;20234;-68
2021/03/29 12:12:11;;;;;;;0.07;0.07;;;;;;;;;;5074419;28;20207;-68
2021/03/29 12:14:39;;;;;;;0.10;0.10;;;;;;;;;;5078772;28;20567;-67
2021/03/29 12:17:05;;;;;;;0.00;0.00;;;;;;;;;;5080870;28;20227;-70
2021/03/29 12:19:31;;;;;;;0.10;0.10;;;;;;;;;;5081256;28;20210;-71
2021/03/29 12:21:58;;;;;;;0.03;0.03;;;;;;;;;;5078141;28;20465;-68
2021/03/29 12:24:27;;;;;;;0.10;0.10;;;;;;;;;;5080851;28;20205;-67
2021/03/29 12:26:52;;;;;;;0.10;0.10;;;;;;;;;;5080244;28;20306;-67
2021/03/29 12:29:21;;;;;;;0.10;0.10;;;;;;;;;;5079786;28;20275;-68
2021/03/29 12:31:49;;;;;;;0.10;0.10;;;;;;;;;;5078720;28;20195;-69
2021/03/29 12:34:15;;;;;;;0.10;0.10;;;;;;;;;;5074052;28;20208;-67
2021/03/29 12:36:44;;;;;;;0.07;0.07;;;;;;;;;;5073496;28;20273;-67
2021/03/29 12:39:15;;;;;;;0.10;0.10;;;;;;;;;;5087016;28;20199;-67
2021/03/29 12:41:43;;;;;;;0.10;0.10;;;;;;;;;;5082103;28;20227;-68
2021/03/29 12:44:12;;;;;;;0.10;0.10;;;;;;;;;;5077033;28;20204;-68
2021/03/29 12:46:39;;;;;;;0.10;0.10;;;;;;;;;;5075295;28;20209;-68
2021/03/29 12:49:10;;;;;;;0.05;0.05;;;;;;;;;;5083373;28;20223;-68
2021/03/29 12:51:36;;;;;;;0.10;0.10;;;;;;;;;;5068554;28;20201;-69
2021/03/29 12:54:05;;;;;;;0.00;0.00;;;;;;;;;;5077228;28;20210;-69
2021/03/29 12:56:31;;;;;;;0.00;0.00;;;;;;;;;;5069626;28;20200;-67
2021/03/29 12:58:57;;;;;;;0.00;0.00;;;;;;;;;;5079215;28;20214;-66
2021/03/29 13:01:24;;;;;;;0.00;0.00;;;;;;;;;;5085432;28;20275;-67
2021/03/29 13:03:54;;;;;;;0.00;0.00;;;;;;;;;;5076037;28;20231;-68
2021/03/29 13:06:24;;;;;;;0.10;0.10;;;;;;;;;;5077513;28;20273;-68
2021/03/29 13:08:50;;;;;;;0.10;0.10;;;;;;;;;;5073561;28;20205;-68
2021/03/29 13:11:25;;;;;;;0.10;0.10;;;;;;;;;;5071225;28;20386;-68
2021/03/29 13:13:52;;;;;;;0.17;0.17;;;;;;;;;;5075606;28;20318;-68
2021/03/29 13:16:17;;;;;;;0.10;0.10;;;;;;;;;;5080411;28;20203;-67
2021/03/29 13:18:44;;;;;;;0.10;0.10;;;;;;;;;;5076538;28;20271;-68
2021/03/29 13:21:10;;;;;;;0.00;0.00;;;;;;;;;;5078293;28;20212;-68
2021/03/29 13:23:36;;;;;;;0.08;0.08;;;;;;;;;;5076311;28;20431;-67
2021/03/29 13:26:02;;;;;;;0.10;0.10;;;;;;;;;;5066370;28;20231;-68
2021/03/29 13:28:28;;;;;;;0.10;0.10;;;;;;;;;;5071235;28;20200;-68
2021/03/29 13:30:54;;;;;;;0.00;0.00;;;;;;;;;;5083790;28;20205;-67
2021/03/29 13:33:20;;;;;;;0.05;0.05;;;;;;;;;;5083790;28;20328;-67
2021/03/29 13:35:46;;;;;;;0.10;0.10;;;;;;;;;;5082442;28;20199;-67
2021/03/29 13:38:13;;;;;;;0.10;0.10;;;;;;;;;;5071817;28;20463;-67
2021/03/29 13:40:40;;;;;;;0.03;0.03;;;;;;;;;;5068711;28;20201;-67
2021/03/29 13:43:06;;;;;;;0.03;0.03;;;;;;;;;;5077783;28;20534;-67
2021/03/29 13:45:32;;;;;;;0.00;0.00;;;;;;;;;;5077607;28;20209;-67
2021/03/29 13:47:58;;;;;;;0.00;0.00;;;;;;;;;;5073265;28;20213;-67
2021/03/29 13:50:24;;;;;;;0.10;0.10;;;;;;;;;;5085222;28;20201;-68
2021/03/29 13:52:51;;;;;;;0.00;0.00;;;;;;;;;;5085719;28;20220;-68
2021/03/29 13:55:18;;;;;;;0.10;0.10;;;;;;;;;;5081976;28;20422;-68
2021/03/29 13:57:45;;;;;;;0.10;0.10;;;;;;;;;;5082088;28;20230;-69
2021/03/29 14:00:13;;;;;;;0.10;0.10;;;;;;;;;;5078492;28;20211;-67
2021/03/29 14:02:42;;;;;;;0.00;0.00;;;;;;;;;;5076235;28;20224;-69
2021/03/29 14:05:10;;;;;;;0.00;0.00;;;;;;;;;;5079654;28;20274;-69
2021/03/29 14:07:36;;;;;;;0.00;0.00;;;;;;;;;;5073230;28;20389;-68
2021/03/29 14:10:02;;;;;;;0.10;0.10;;;;;;;;;;5080684;28;20211;-69
2021/03/29 14:12:28;;;;;;;0.00;0.00;;;;;;;;;;5085242;28;20206;-66
2021/03/29 14:14:54;;;;;;;0.10;0.10;;;;;;;;;;5082937;28;20269;-67
2021/03/29 14:17:21;;;;;;;0.10;0.10;;;;;;;;;;5079005;28;20222;-66
2021/03/29 14:19:47;;;;;;;0.10;0.10;;;;;;;;;;5078631;28;20520;-68
2021/03/29 14:22:12;;;;;;;0.00;0.00;;;;;;;;;;5074500;28;20222;-67
2021/03/29 14:24:38;;;;;;;0.08;0.08;;;;;;;;;;5082460;28;20212;-66
2021/03/29 14:27:04;;;;;;;0.00;0.00;;;;;;;;;;5073289;28;20208;-68
2021/03/29 14:29:41;;;;;;;0.00;0.00;;;;;;;;;;5075883;28;20319;-68
2021/03/29 14:32:10;;;;;;;0.10;0.10;;;;;;;;;;5072877;28;20464;-67
2021/03/29 14:34:37;;;;;;;0.10;0.10;;;;;;;;;;5082712;28;20233;-69
2021/03/29 14:37:12;;;;;;;0.10;0.10;;;;;;;;;;5079064;28;20483;-66
2021/03/29 14:39:40;;;;;;;0.10;0.10;;;;;;;;;;5065498;28;20268;-68
2021/03/29 14:42:15;;;;;;;0.00;0.00;;;;;;;;;;5070141;28;20220;-67
2021/03/29 14:44:41;;;;;;;0.10;0.10;;;;;;;;;;5080737;28;20219;-68